createdAt,value
2023-01-30T00:01:19.278Z,7.50
2023-01-30T00:03:46.174Z,7.50
2023-01-30T00:06:13.434Z,7.50
2023-01-30T00:08:40.374Z,7.60
2023-01-30T00:11:09.419Z,7.60
2023-01-30T00:13:36.558Z,7.60
2023-01-30T00:16:04.222Z,7.70
2023-01-30T00:18:31.252Z,7.70
2023-01-30T00:21:00.502Z,7.70
2023-01-30T00:23:28.368Z,7.70
2023-01-30T00:25:56.083Z,7.80
2023-01-30T00:28:23.316Z,7.80
2023-01-30T00:30:51.630Z,7.80
2023-01-30T00:33:20.004Z,7.80
2023-01-30T00:35:48.144Z,7.90
2023-01-30T00:38:15.114Z,7.90
2023-01-30T00:40:42.578Z,7.90
2023-01-30T00:43:32.660Z,8.00
2023-01-30T00:46:19.539Z,8.00
2023-01-30T00:48:46.313Z,8.10
2023-01-30T00:51:13.372Z,8.10
2023-01-30T00:53:40.081Z,8.10
2023-01-30T00:56:07.091Z,8.10
2023-01-30T00:58:34.130Z,8.20
2023-01-30T01:01:01.096Z,8.20
2023-01-30T01:03:27.830Z,8.20
2023-01-30T01:05:54.609Z,8.20
2023-01-30T01:08:22.703Z,8.20
2023-01-30T01:10:49.566Z,8.30
2023-01-30T01:13:16.386Z,8.30
2023-01-30T01:15:43.192Z,8.30
2023-01-30T01:18:10.007Z,8.30
2023-01-30T01:20:36.752Z,8.40
2023-01-30T01:23:03.601Z,8.40
2023-01-30T01:25:30.297Z,8.40
2023-01-30T01:27:57.123Z,8.40
2023-01-30T01:30:24.040Z,8.40
2023-01-30T01:32:50.836Z,8.40
2023-01-30T01:35:19.703Z,8.40
2023-01-30T01:37:46.979Z,8.40
2023-01-30T01:40:38.029Z,8.40
2023-01-30T01:43:22.262Z,8.50
2023-01-30T01:45:53.470Z,8.50
2023-01-30T01:48:35.000Z,8.50
2023-01-30T01:51:19.147Z,8.50
2023-01-30T01:54:01.841Z,8.50
2023-01-30T01:56:30.957Z,8.50
2023-01-30T01:59:04.344Z,8.50
2023-01-30T02:01:31.658Z,8.50
2023-01-30T02:04:03.213Z,8.50
2023-01-30T02:06:31.013Z,8.50
2023-01-30T02:09:02.543Z,8.50
2023-01-30T02:11:47.625Z,8.50
2023-01-30T02:14:15.670Z,8.50
2023-01-30T02:16:46.408Z,8.50
2023-01-30T02:19:40.994Z,8.50
2023-01-30T02:22:26.350Z,8.50
2023-01-30T02:25:35.088Z,8.50
2023-01-30T02:28:07.827Z,8.50
2023-01-30T02:31:11.576Z,8.50
2023-01-30T02:34:26.483Z,8.50
2023-01-30T02:36:55.856Z,8.40
2023-01-30T02:39:30.781Z,8.40
2023-01-30T02:42:26.945Z,8.40
2023-01-30T02:45:00.292Z,8.40
2023-01-30T02:47:49.513Z,8.40
2023-01-30T02:51:01.251Z,8.40
2023-01-30T02:53:34.655Z,8.40
2023-01-30T02:56:01.486Z,8.30
2023-01-30T02:58:46.416Z,8.30
2023-01-30T03:01:49.875Z,8.30
2023-01-30T03:04:37.761Z,8.30
2023-01-30T03:07:27.532Z,8.40
2023-01-30T03:10:37.288Z,8.30
2023-01-30T03:13:34.264Z,8.30
2023-01-30T03:16:09.789Z,8.30
2023-01-30T03:18:36.581Z,8.30
2023-01-30T03:21:06.813Z,8.30
2023-01-30T03:23:33.627Z,8.30
2023-01-30T03:26:02.542Z,8.30
2023-01-30T03:28:29.566Z,8.30
2023-01-30T03:30:56.353Z,8.30
2023-01-30T03:33:23.199Z,8.30
2023-01-30T03:35:51.088Z,8.30
2023-01-30T03:38:18.362Z,8.30
2023-01-30T03:40:45.457Z,8.30
2023-01-30T03:43:12.215Z,8.40
2023-01-30T03:45:39.009Z,8.40
2023-01-30T03:48:05.971Z,8.40
2023-01-30T03:50:32.811Z,8.40
2023-01-30T03:52:59.490Z,8.40
2023-01-30T03:55:26.254Z,8.40
2023-01-30T03:57:57.458Z,8.50
2023-01-30T04:00:24.379Z,8.50
2023-01-30T04:02:52.024Z,8.50
2023-01-30T04:05:19.259Z,8.50
2023-01-30T04:07:46.294Z,8.50
2023-01-30T04:10:15.475Z,8.60
2023-01-30T04:12:43.049Z,8.60
2023-01-30T04:15:10.463Z,8.60
2023-01-30T04:17:37.200Z,8.70
2023-01-30T04:20:04.454Z,8.70
2023-01-30T04:22:31.288Z,8.70
2023-01-30T04:24:57.998Z,8.70
2023-01-30T04:27:24.741Z,8.70
2023-01-30T04:29:51.444Z,8.80
2023-01-30T04:32:18.182Z,8.80
2023-01-30T04:34:45.163Z,8.80
2023-01-30T04:37:13.237Z,8.90
2023-01-30T04:39:39.883Z,8.90
2023-01-30T04:42:06.682Z,8.90
2023-01-30T04:44:33.427Z,8.90
2023-01-30T04:47:00.209Z,8.90
2023-01-30T04:49:27.137Z,8.90
2023-01-30T04:51:53.936Z,8.90
2023-01-30T04:54:20.814Z,8.90
2023-01-30T04:56:47.491Z,8.90
2023-01-30T04:59:14.215Z,8.90
2023-01-30T05:01:41.547Z,8.90
2023-01-30T05:04:08.925Z,8.90
2023-01-30T05:06:36.903Z,8.90
2023-01-30T05:09:04.405Z,8.90
2023-01-30T05:11:32.202Z,9.00
2023-01-30T05:13:59.461Z,8.90
2023-01-30T05:16:27.057Z,8.90
2023-01-30T05:18:53.817Z,9.00
2023-01-30T05:21:23.157Z,9.00
2023-01-30T05:23:51.524Z,9.00
2023-01-30T05:26:18.515Z,9.00
2023-01-30T05:28:50.211Z,9.00
2023-01-30T05:31:17.060Z,9.00
2023-01-30T05:33:48.561Z,9.00
2023-01-30T05:36:17.787Z,9.00
2023-01-30T05:38:45.409Z,9.00
2023-01-30T05:41:13.967Z,9.00
2023-01-30T05:43:40.732Z,9.00
2023-01-30T05:46:09.841Z,9.00
2023-01-30T05:48:36.704Z,9.00
2023-01-30T05:51:03.706Z,8.90
2023-01-30T05:53:35.002Z,8.90
2023-01-30T05:56:05.255Z,8.90
2023-01-30T05:58:33.103Z,8.90
2023-01-30T06:01:05.764Z,8.90
2023-01-30T06:03:33.053Z,8.80
2023-01-30T06:06:01.714Z,8.80
2023-01-30T06:08:28.444Z,8.70
2023-01-30T06:10:55.170Z,8.70
2023-01-30T06:13:22.077Z,8.70
2023-01-30T06:15:48.865Z,8.60
2023-01-30T06:18:15.647Z,8.60
2023-01-30T06:20:48.174Z,8.60
2023-01-30T06:23:15.275Z,8.50
2023-01-30T06:25:49.510Z,8.50
2023-01-30T06:28:17.749Z,8.50
2023-01-30T06:30:44.807Z,8.40
2023-01-30T06:33:11.960Z,8.40
2023-01-30T06:35:39.072Z,8.30
2023-01-30T06:38:06.647Z,8.30
2023-01-30T06:40:33.409Z,8.30
2023-01-30T06:43:00.137Z,8.20
2023-01-30T06:45:26.877Z,8.20
2023-01-30T06:47:56.317Z,8.20
2023-01-30T06:50:25.089Z,8.10
2023-01-30T06:52:52.951Z,8.10
2023-01-30T06:55:22.293Z,8.10
2023-01-30T06:57:49.878Z,8.10
2023-01-30T07:00:20.835Z,8.00
2023-01-30T07:02:47.595Z,8.00
2023-01-30T07:05:14.421Z,8.00
2023-01-30T07:07:41.128Z,7.90
2023-01-30T07:10:09.400Z,7.90
2023-01-30T07:12:36.918Z,7.90
2023-01-30T07:15:05.451Z,7.90
2023-01-30T07:17:32.625Z,7.80
2023-01-30T07:19:59.760Z,7.80
2023-01-30T07:22:26.512Z,7.80
2023-01-30T07:24:53.278Z,7.80
2023-01-30T07:27:20.565Z,7.80
2023-01-30T07:29:47.325Z,7.80
2023-01-30T07:32:17.035Z,7.80
2023-01-30T07:34:43.812Z,7.70
2023-01-30T07:37:10.638Z,7.70
2023-01-30T07:39:37.454Z,7.70
2023-01-30T07:42:04.595Z,7.70
2023-01-30T07:44:31.882Z,7.70
2023-01-30T07:46:58.604Z,7.70
2023-01-30T07:49:25.452Z,7.70
2023-01-30T07:51:53.436Z,7.70
2023-01-30T07:54:20.249Z,7.70
2023-01-30T07:56:46.982Z,7.70
2023-01-30T07:59:13.735Z,7.70
2023-01-30T08:01:40.618Z,7.70
2023-01-30T08:04:07.448Z,7.70
2023-01-30T08:06:38.932Z,7.70
2023-01-30T08:09:06.907Z,7.70
2023-01-30T08:11:34.307Z,7.70
2023-01-30T08:14:01.113Z,7.70
2023-01-30T08:16:28.023Z,7.80
2023-01-30T08:18:54.826Z,7.80
2023-01-30T08:21:21.644Z,7.80
2023-01-30T08:23:48.520Z,7.80
2023-01-30T08:26:15.357Z,7.80
2023-01-30T08:28:42.361Z,7.80
2023-01-30T08:31:14.012Z,7.80
2023-01-30T08:33:41.008Z,7.90
2023-01-30T08:36:08.242Z,7.90
2023-01-30T08:38:34.981Z,7.90
2023-01-30T08:41:04.873Z,8.00
2023-01-30T08:43:31.592Z,8.00
2023-01-30T08:45:58.330Z,8.00
2023-01-30T08:48:25.068Z,8.10
2023-01-30T08:50:53.634Z,8.10
2023-01-30T08:53:21.464Z,8.10
2023-01-30T08:55:54.474Z,8.20
2023-01-30T08:58:21.973Z,8.20
2023-01-30T09:00:50.281Z,8.30
2023-01-30T09:03:18.525Z,8.30
2023-01-30T09:05:45.460Z,8.30
2023-01-30T09:08:12.894Z,8.30
2023-01-30T09:10:39.686Z,8.30
2023-01-30T09:13:09.543Z,8.30
2023-01-30T09:15:36.632Z,8.40
2023-01-30T09:18:04.999Z,8.40
2023-01-30T09:20:32.231Z,8.40
2023-01-30T09:22:59.285Z,8.40
2023-01-30T09:25:26.040Z,8.40
2023-01-30T09:27:52.879Z,8.50
2023-01-30T09:30:20.483Z,8.40
2023-01-30T09:32:48.313Z,8.50
2023-01-30T09:35:15.238Z,8.50
2023-01-30T09:37:52.815Z,8.50
2023-01-30T09:40:31.949Z,8.60
2023-01-30T09:43:29.816Z,8.60
2023-01-30T09:46:22.225Z,8.60
2023-01-30T09:49:09.252Z,8.60
2023-01-30T09:52:19.437Z,8.60
2023-01-30T09:54:47.571Z,8.70
2023-01-30T09:57:22.329Z,8.70
2023-01-30T10:00:09.720Z,8.70
2023-01-30T10:02:55.231Z,8.70
2023-01-30T10:05:27.791Z,8.80
2023-01-30T10:08:18.509Z,8.80
2023-01-30T10:11:14.274Z,8.80
2023-01-30T10:14:00.517Z,8.80
2023-01-30T10:16:36.215Z,8.80
2023-01-30T10:19:37.729Z,8.80
2023-01-30T10:22:22.935Z,8.80
2023-01-30T10:25:17.233Z,8.80
2023-01-30T10:27:56.129Z,8.80
2023-01-30T10:30:23.362Z,8.80
2023-01-30T10:32:57.219Z,8.80
2023-01-30T10:35:29.802Z,8.90
2023-01-30T10:38:03.644Z,8.90
2023-01-30T10:40:42.543Z,8.90
2023-01-30T10:43:37.410Z,8.90
2023-01-30T10:46:23.164Z,8.90
2023-01-30T10:48:55.857Z,9.00
2023-01-30T10:51:41.423Z,9.00
2023-01-30T10:54:19.391Z,9.00
2023-01-30T10:56:52.644Z,9.00
2023-01-30T10:59:43.247Z,9.00
2023-01-30T11:02:38.367Z,9.00
2023-01-30T11:05:13.632Z,9.00
2023-01-30T11:07:43.283Z,9.00
2023-01-30T11:10:25.022Z,9.10
2023-01-30T11:12:58.929Z,9.10
2023-01-30T11:15:38.534Z,9.10
2023-01-30T11:21:04.368Z,9.10
2023-01-30T11:23:33.564Z,9.20
2023-01-30T11:26:10.890Z,9.20
2023-01-30T11:28:43.131Z,9.30
2023-01-30T11:31:31.571Z,9.40
2023-01-30T11:34:18.353Z,9.40
2023-01-30T11:36:47.205Z,9.40
2023-01-30T11:39:21.145Z,9.40
2023-01-30T11:41:53.999Z,9.50
2023-01-30T11:44:27.059Z,9.50
2023-01-30T11:46:54.484Z,9.50
2023-01-30T11:49:46.641Z,9.50
2023-01-30T11:52:10.287Z,9.50
2023-01-30T11:54:44.521Z,9.60
2023-01-30T11:57:14.437Z,9.60
2023-01-30T11:59:47.587Z,9.60
2023-01-30T12:02:24.262Z,9.50
2023-01-30T12:04:55.677Z,9.60
2023-01-30T12:07:22.351Z,9.60
2023-01-30T12:09:50.601Z,9.60
2023-01-30T12:12:52.654Z,9.60
2023-01-30T12:15:27.033Z,9.70
2023-01-30T12:18:20.816Z,9.70
2023-01-30T12:21:00.776Z,9.80
2023-01-30T12:23:48.762Z,9.80
2023-01-30T12:26:31.060Z,9.80
2023-01-30T12:29:16.468Z,9.80
2023-01-30T12:31:47.074Z,9.70
2023-01-30T12:34:13.927Z,9.70
2023-01-30T12:37:13.434Z,9.70
2023-01-30T12:40:18.718Z,9.70
2023-01-30T12:43:19.819Z,9.70
2023-01-30T12:46:01.647Z,9.70
2023-01-30T12:51:49.395Z,9.70
2023-01-30T12:54:53.782Z,9.80
2023-01-30T12:57:52.781Z,9.80
2023-01-30T13:00:25.367Z,9.80
2023-01-30T13:03:20.132Z,9.80
2023-01-30T13:05:53.592Z,9.80
2023-01-30T13:08:35.956Z,9.80
2023-01-30T13:11:10.362Z,9.80
2023-01-30T13:13:49.445Z,9.70
2023-01-30T13:16:46.047Z,9.70
2023-01-30T13:19:25.337Z,9.70
2023-01-30T13:22:13.389Z,9.70
2023-01-30T13:25:14.192Z,9.60
2023-01-30T13:27:45.235Z,9.60
2023-01-30T13:30:18.034Z,9.60
2023-01-30T13:32:51.758Z,9.60
2023-01-30T13:35:24.263Z,9.60
2023-01-30T13:37:52.743Z,9.50
2023-01-30T13:40:24.881Z,9.50
2023-01-30T13:43:14.071Z,9.50
2023-01-30T13:45:45.354Z,9.50
2023-01-30T13:48:33.047Z,9.50
2023-01-30T13:51:26.462Z,9.50
2023-01-30T13:54:30.116Z,9.50
2023-01-30T13:57:08.857Z,9.50
2023-01-30T13:59:44.642Z,9.50
2023-01-30T14:02:18.879Z,9.50
2023-01-30T14:04:48.125Z,9.50
2023-01-30T14:07:14.841Z,9.50
2023-01-30T14:09:52.635Z,9.50
2023-01-30T14:12:34.386Z,9.50
2023-01-30T14:15:20.514Z,9.50
2023-01-30T14:18:31.245Z,9.50
2023-01-30T14:21:20.436Z,9.50
2023-01-30T14:24:04.230Z,9.50
2023-01-30T14:26:49.036Z,9.50
2023-01-30T14:29:37.606Z,9.50
2023-01-30T14:32:14.145Z,9.50
2023-01-30T14:34:43.062Z,9.50
2023-01-30T14:37:49.894Z,9.40
2023-01-30T14:40:22.594Z,9.50
2023-01-30T14:43:16.910Z,9.40
2023-01-30T14:46:08.571Z,9.40
2023-01-30T14:48:44.903Z,9.50
2023-01-30T14:51:39.249Z,9.40
2023-01-30T14:54:11.806Z,9.40
2023-01-30T14:57:16.819Z,9.40
2023-01-30T15:00:15.064Z,9.40
2023-01-30T15:02:50.552Z,9.40
2023-01-30T15:05:28.452Z,9.40
2023-01-30T15:08:08.149Z,9.40
2023-01-30T15:10:37.608Z,9.40
2023-01-30T15:13:38.985Z,9.40
2023-01-30T15:16:24.458Z,9.40
2023-01-30T15:19:03.660Z,9.40
2023-01-30T15:22:13.573Z,9.30
2023-01-30T15:24:47.392Z,9.30
2023-01-30T15:27:54.216Z,9.30
2023-01-30T15:30:42.860Z,9.30
2023-01-30T15:33:29.428Z,9.30
2023-01-30T15:35:57.732Z,9.30
2023-01-30T15:38:30.353Z,9.30
2023-01-30T15:41:09.593Z,9.30
2023-01-30T15:43:49.919Z,9.30
2023-01-30T15:46:32.604Z,9.30
2023-01-30T15:49:21.156Z,9.30
2023-01-30T15:51:48.140Z,9.30
2023-01-30T15:54:19.920Z,9.30
2023-01-30T15:56:49.756Z,9.30
2023-01-30T15:59:32.439Z,9.30
2023-01-30T16:02:27.003Z,9.30
2023-01-30T16:05:17.932Z,9.30
2023-01-30T16:07:46.496Z,9.30
2023-01-30T16:10:25.145Z,9.30
2023-01-30T16:12:55.974Z,9.30
2023-01-30T16:15:25.447Z,9.30
2023-01-30T16:18:03.677Z,9.20
2023-01-30T16:20:55.251Z,9.20
2023-01-30T16:23:43.114Z,9.20
2023-01-30T16:26:17.912Z,9.10
2023-01-30T16:28:45.327Z,8.90
2023-01-30T16:31:12.424Z,8.80
2023-01-30T16:33:39.440Z,8.70
2023-01-30T16:36:27.779Z,8.60
2023-01-30T16:38:55.309Z,8.60
2023-01-30T16:41:39.404Z,8.40
2023-01-30T16:44:19.458Z,8.40
2023-01-30T16:46:50.754Z,8.30
2023-01-30T16:49:20.345Z,8.30
2023-01-30T16:51:48.414Z,8.20
2023-01-30T16:54:28.253Z,8.20
2023-01-30T16:56:57.939Z,8.10
2023-01-30T16:59:34.178Z,8.10
2023-01-30T17:02:05.888Z,8.00
2023-01-30T17:04:34.276Z,8.00
2023-01-30T17:07:04.181Z,8.00
2023-01-30T17:09:35.690Z,7.90
2023-01-30T17:12:29.960Z,7.90
2023-01-30T17:15:20.394Z,7.90
2023-01-30T17:17:47.771Z,7.80
2023-01-30T17:20:18.344Z,7.80
2023-01-30T17:22:47.954Z,7.80
2023-01-30T17:25:39.253Z,7.80
2023-01-30T17:28:07.797Z,7.70
2023-01-30T17:30:35.330Z,7.70
2023-01-30T17:33:02.137Z,7.70
2023-01-30T17:35:28.799Z,7.60
2023-01-30T17:38:04.747Z,7.60
2023-01-30T17:40:39.429Z,7.60
2023-01-30T17:43:06.236Z,7.60
2023-01-30T17:45:33.192Z,7.60
2023-01-30T17:47:59.970Z,7.50
2023-01-30T17:50:28.503Z,7.50
2023-01-30T17:52:55.280Z,7.50
2023-01-30T17:55:22.291Z,7.50
2023-01-30T17:57:49.708Z,7.50
2023-01-30T18:00:19.272Z,7.40
2023-01-30T18:02:46.908Z,7.40
2023-01-30T18:05:14.518Z,7.40
2023-01-30T18:07:42.471Z,7.30
2023-01-30T18:10:15.062Z,7.30
2023-01-30T18:12:42.577Z,7.30
2023-01-30T18:15:11.977Z,7.40
2023-01-30T18:17:45.300Z,7.40
2023-01-30T18:20:14.770Z,7.30
2023-01-30T18:22:41.462Z,7.30
2023-01-30T18:25:09.137Z,7.30
2023-01-30T18:27:35.904Z,7.30
2023-01-30T18:30:03.548Z,7.30
2023-01-30T18:32:31.951Z,7.30
2023-01-30T18:35:00.175Z,7.30
2023-01-30T18:37:29.890Z,7.30
2023-01-30T18:39:56.703Z,7.20
2023-01-30T18:42:23.466Z,7.20
2023-01-30T18:44:50.212Z,7.20
2023-01-30T18:47:16.961Z,7.20
2023-01-30T18:49:43.707Z,7.10
2023-01-30T18:52:10.456Z,7.10
2023-01-30T18:54:37.536Z,7.10
2023-01-30T18:57:04.341Z,7.00
2023-01-30T18:59:31.029Z,7.00
2023-01-30T19:01:57.771Z,7.00
2023-01-30T19:04:24.465Z,7.00
2023-01-30T19:06:51.302Z,6.90
2023-01-30T19:09:19.063Z,6.90
2023-01-30T19:12:04.522Z,6.90
2023-01-30T19:14:31.313Z,6.90
2023-01-30T19:16:58.111Z,6.90
2023-01-30T19:19:25.085Z,6.90
2023-01-30T19:21:52.324Z,6.90
2023-01-30T19:24:19.175Z,6.90
2023-01-30T19:26:45.952Z,6.80
2023-01-30T19:29:12.834Z,6.80
2023-01-30T19:31:39.861Z,6.80
2023-01-30T19:34:06.808Z,6.80
2023-01-30T19:36:35.262Z,6.80
2023-01-30T19:39:03.655Z,6.70
2023-01-30T19:41:33.759Z,6.70
2023-01-30T19:44:01.831Z,6.60
2023-01-30T19:46:29.316Z,6.60
2023-01-30T19:48:56.420Z,6.50
2023-01-30T19:51:26.854Z,6.50
2023-01-30T19:53:54.698Z,6.50
2023-01-30T19:56:22.544Z,6.40
2023-01-30T19:58:52.905Z,6.40
2023-01-30T20:01:20.502Z,6.30
2023-01-30T20:03:47.521Z,6.30
2023-01-30T20:06:18.067Z,6.30
2023-01-30T20:08:46.418Z,6.20
2023-01-30T20:11:17.470Z,6.20
2023-01-30T20:13:46.659Z,6.20
2023-01-30T20:16:18.401Z,6.20
2023-01-30T20:18:48.218Z,6.20
2023-01-30T20:21:19.806Z,6.20
2023-01-30T20:23:47.439Z,6.20
2023-01-30T20:26:17.953Z,6.10
2023-01-30T20:28:45.357Z,6.10
2023-01-30T20:31:14.947Z,6.10
2023-01-30T20:33:42.179Z,6.10
2023-01-30T20:36:11.702Z,6.10
2023-01-30T20:38:40.566Z,6.10
2023-01-30T20:41:09.625Z,6.10
2023-01-30T20:43:38.747Z,6.10
2023-01-30T20:46:11.010Z,6.10
2023-01-30T20:48:38.840Z,6.10
2023-01-30T20:51:14.763Z,6.10
2023-01-30T20:53:51.711Z,6.10
2023-01-30T20:56:19.575Z,6.10
2023-01-30T20:58:46.735Z,6.10
2023-01-30T21:01:19.436Z,6.00
2023-01-30T21:03:49.380Z,6.00
2023-01-30T21:06:41.885Z,6.00
2023-01-30T21:09:05.832Z,6.00
2023-01-30T21:11:32.779Z,6.00
2023-01-30T21:14:00.771Z,6.00
2023-01-30T21:16:30.367Z,6.00
2023-01-30T21:19:02.300Z,6.00
2023-01-30T21:21:32.142Z,6.00
2023-01-30T21:24:02.212Z,6.00
2023-01-30T21:26:31.671Z,6.00
2023-01-30T21:29:00.456Z,6.00
2023-01-30T21:31:28.869Z,6.00
2023-01-30T21:33:57.431Z,6.00
2023-01-30T21:36:25.111Z,6.00
2023-01-30T21:39:10.671Z,6.00
2023-01-30T21:41:45.260Z,6.00
2023-01-30T21:44:13.689Z,5.90
2023-01-30T21:46:43.462Z,5.90
2023-01-30T21:49:10.943Z,5.90
2023-01-30T21:51:40.297Z,5.90
2023-01-30T21:54:07.003Z,5.90
2023-01-30T21:56:33.866Z,5.90
2023-01-30T21:59:02.152Z,5.90
2023-01-30T22:01:29.872Z,5.90
2023-01-30T22:04:00.192Z,5.90
2023-01-30T22:06:27.160Z,5.90
2023-01-30T22:08:55.461Z,5.90
2023-01-30T22:11:22.893Z,5.90
2023-01-30T22:13:50.989Z,5.90
2023-01-30T22:16:20.698Z,6.00
2023-01-30T22:18:51.992Z,6.00
2023-01-30T22:21:20.902Z,6.00
2023-01-30T22:23:49.991Z,6.00
2023-01-30T22:26:19.094Z,6.00
2023-01-30T22:28:46.543Z,6.00
2023-01-30T22:31:18.370Z,6.00
2023-01-30T22:33:51.171Z,5.90
2023-01-30T22:36:18.248Z,5.90
2023-01-30T22:38:47.533Z,5.90
2023-01-30T22:41:19.333Z,5.90
2023-01-30T22:43:48.707Z,5.90
2023-01-30T22:46:16.695Z,5.90
2023-01-30T22:48:44.518Z,5.80
2023-01-30T22:51:14.461Z,5.80
2023-01-30T22:53:43.935Z,5.80
2023-01-30T22:56:13.088Z,5.80
2023-01-30T22:58:40.427Z,5.80
2023-01-30T23:01:15.558Z,5.70
2023-01-30T23:03:44.053Z,5.70
2023-01-30T23:06:14.085Z,5.70
2023-01-30T23:08:43.965Z,5.60
2023-01-30T23:11:19.145Z,5.60
2023-01-30T23:13:48.712Z,5.60
2023-01-30T23:16:17.875Z,5.60
2023-01-30T23:18:56.523Z,5.50
2023-01-30T23:21:37.932Z,5.50
2023-01-30T23:24:06.153Z,5.50
2023-01-30T23:26:37.195Z,5.50
2023-01-30T23:29:07.660Z,5.40
2023-01-30T23:31:35.427Z,5.40
2023-01-30T23:34:04.465Z,5.40
2023-01-30T23:36:32.185Z,5.30
2023-01-30T23:39:00.178Z,5.30
2023-01-30T23:41:30.453Z,5.20
2023-01-30T23:43:58.352Z,5.20
2023-01-30T23:46:33.723Z,5.20
2023-01-30T23:49:03.599Z,5.20
2023-01-30T23:51:32.420Z,5.10
2023-01-30T23:53:59.485Z,5.10
2023-01-30T23:56:28.579Z,5.10
2023-01-30T23:58:56.018Z,5.00
